»·PEaware :: N351SS KSNA-KBUR

N351SS :: KSNA-KBUR

FLIGHT INFORMATION

Flight Status: Arrived
Operator: Privately registered:
United States
More flights under this callsign
Pilot: Reuben K. (13591)
Aircraft: CESSNA 206 STATIONAIR
(C206)
More flights by this aircraft type
Origin: KSNA John Wayne-Orange Co
United States
Destination: KBUR Bob Hope-Burbank
United States
More flights between these airports :: More routes between these airports
Route: SLI V23 POPPR SMO125 SMO SMO311 SILEX
File this flight plan on PilotEdge
Remarks: I-3 rating
Altitude:
(Current/Filed)
4,000ft
Speed:
(Current/Filed)
140kts
Departed: 06-Feb-20 08:50 PM
Arrived: 06-Feb-20 09:25 PM
Distance/Time
Traveled:
40nm/0:35
Distance/Time
To Go:
Arrived

Flight Plot

Page will automatically refresh every two minutes.


Map Options




Map Legend


Flown Route
Filed Route
Departure Airport
Arrival Airport
Navaid (VOR, NDB)
Fix

Horizontal Profiles

Position Reports

Time Latitude Longitude Heading Altitude Ground
Speed
06-Feb-20 20:11 33.676080 -117.870909 219 60ft 0kts
06-Feb-20 20:12 33.676080 -117.870909 219 60ft 0kts
06-Feb-20 20:13 33.676080 -117.870909 219 60ft 0kts
06-Feb-20 20:14 33.676080 -117.870909 219 60ft 0kts
06-Feb-20 20:15 33.676080 -117.870909 219 60ft 0kts
06-Feb-20 20:16 33.676080 -117.870909 219 60ft 0kts
06-Feb-20 20:17 33.676080 -117.870909 219 60ft 0kts
06-Feb-20 20:18 33.676080 -117.870909 219 60ft 0kts
06-Feb-20 20:19 33.676080 -117.870909 219 60ft 0kts
06-Feb-20 20:20 33.676080 -117.870909 219 60ft 0kts
06-Feb-20 20:21 33.676080 -117.870909 219 60ft 0kts
06-Feb-20 20:22 33.676080 -117.870909 219 60ft 0kts
06-Feb-20 20:23 33.676080 -117.870909 219 60ft 0kts
06-Feb-20 20:24 33.676080 -117.870909 219 60ft 0kts
06-Feb-20 20:25 33.676080 -117.870909 219 60ft 0kts
06-Feb-20 20:26 33.675909 -117.870871 91 60ft 2kts
06-Feb-20 20:27 33.675908 -117.870851 93 60ft 0kts
06-Feb-20 20:28 33.675908 -117.870851 93 60ft 0kts
06-Feb-20 20:29 33.675908 -117.870851 93 60ft 0kts
06-Feb-20 20:30 33.675908 -117.870851 93 60ft 0kts
06-Feb-20 20:31 33.675908 -117.870851 93 60ft 0kts
06-Feb-20 20:32 33.675908 -117.870851 93 60ft 0kts
06-Feb-20 20:33 33.675908 -117.870851 93 60ft 0kts
06-Feb-20 20:34 33.675908 -117.870851 93 60ft 0kts
06-Feb-20 20:35 33.675908 -117.870851 93 60ft 0kts
06-Feb-20 20:36 33.675908 -117.870851 93 60ft 0kts
06-Feb-20 20:37 33.675908 -117.870851 93 60ft 0kts
06-Feb-20 20:38 33.675908 -117.870851 93 60ft 0kts
06-Feb-20 20:39 33.675908 -117.870851 93 60ft 0kts
06-Feb-20 20:40 33.675908 -117.870851 93 60ft 0kts
06-Feb-20 20:41 33.675908 -117.870851 93 60ft 0kts
06-Feb-20 20:43 33.675908 -117.870851 93 60ft 0kts
06-Feb-20 20:44 33.675908 -117.870851 93 60ft 0kts
06-Feb-20 20:45 33.675908 -117.870851 93 60ft 0kts
06-Feb-20 20:46 33.677202 -117.869359 26 60ft 13kts
06-Feb-20 20:47 33.680845 -117.867222 29 60ft 11kts
06-Feb-20 20:48 33.681237 -117.866529 120 60ft 0kts
06-Feb-20 20:49 33.681007 -117.865989 118 60ft 8kts
06-Feb-20 20:50 33.661403 -117.878058 208 805ft 113kts
06-Feb-20 20:51 33.640981 -117.911031 244 2107ft 131kts
06-Feb-20 20:52 33.640006 -117.953012 281 3566ft 128kts
06-Feb-20 20:53 33.647977 -117.994485 304 3990ft 134kts
06-Feb-20 20:54 33.671171 -118.031655 308 3989ft 138kts
06-Feb-20 20:55 33.694185 -118.066795 309 3955ft 132kts
06-Feb-20 20:56 33.716996 -118.100968 310 3953ft 129kts
06-Feb-20 20:57 33.736272 -118.136990 292 3954ft 129kts
06-Feb-20 20:58 33.750625 -118.176397 298 3953ft 128kts
06-Feb-20 20:59 33.769982 -118.211871 315 3953ft 127kts
06-Feb-20 21:00 33.795447 -118.241439 316 3953ft 126kts
06-Feb-20 21:01 33.821093 -118.270486 316 3952ft 126kts
06-Feb-20 21:02 33.846777 -118.299156 320 3980ft 125kts
06-Feb-20 21:03 33.874491 -118.325056 321 3981ft 126kts
06-Feb-20 21:03 33.897673 -118.346660 321 3980ft 126kts
06-Feb-20 21:04 33.925506 -118.372710 321 3980ft 126kts
06-Feb-20 21:06 33.958092 -118.402744 321 3979ft 126kts
06-Feb-20 21:06 33.981117 -118.424695 319 3979ft 127kts
06-Feb-20 21:07 34.008730 -118.451369 319 3978ft 127kts
06-Feb-20 21:09 34.038252 -118.486212 311 3987ft 127kts
06-Feb-20 21:09 34.057224 -118.513309 311 3988ft 127kts
06-Feb-20 21:10 34.080165 -118.545774 311 3989ft 126kts
06-Feb-20 21:11 34.103186 -118.578079 311 3990ft 127kts
06-Feb-20 21:12 34.126223 -118.610518 311 3990ft 127kts
06-Feb-20 21:13 34.148388 -118.641757 317 3998ft 108kts
06-Feb-20 21:14 34.174658 -118.648775 351 3996ft 92kts
06-Feb-20 21:15 34.195014 -118.639942 65 3996ft 91kts
06-Feb-20 21:16 34.200140 -118.607677 81 3995ft 103kts
06-Feb-20 21:17 34.199423 -118.572535 87 3992ft 104kts
06-Feb-20 21:18 34.199434 -118.541428 88 3694ft 87kts
06-Feb-20 21:19 34.199233 -118.511122 86 3207ft 97kts
06-Feb-20 21:20 34.200091 -118.474183 86 2497ft 115kts
06-Feb-20 21:21 34.198762 -118.436135 91 1980ft 112kts
06-Feb-20 21:22 34.198016 -118.398280 86 1294ft 111kts
06-Feb-20 21:23 34.197867 -118.367378 90 728ft 63kts
06-Feb-20 21:24 34.198580 -118.360217 9 717ft 0kts
06-Feb-20 21:25 34.199610 -118.359807 119 721ft 4kts

Navigation Log

Ident Type
Flight plan parsing failed, navigation log unavailable